Time;durP1;ratioP1;P1;durP2;ratioP2;P2;SDS_P1;SDS_P2;PMS_P1;PMS_P2;Temp;Humidity;BMP_temperature;BMP_pressure;BME280_temperature;BME280_humidity;BME280_pressure;Samples;Min_cycle;Max_cycle;Signal;HPM_P1;HPM_P2
2022/01/17 00:02:18;;;;;;;12.43;1.92;;;7.80;99.90;;;;;;5031622;28;20057;-74
2022/01/17 00:04:44;;;;;;;12.40;2.17;;;7.80;99.90;;;;;;5031587;28;20056;-74
2022/01/17 00:07:10;;;;;;;13.27;2.03;;;7.70;99.90;;;;;;5031886;28;20455;-74
2022/01/17 00:09:36;;;;;;;10.38;1.77;;;7.60;99.90;;;;;;5031789;28;20112;-74
2022/01/17 00:12:01;;;;;;;15.68;1.70;;;7.60;99.90;;;;;;5032842;28;20026;-74
2022/01/17 00:14:33;;;;;;;15.23;2.05;;;7.50;99.90;;;;;;5014429;28;20026;-74
2022/01/17 00:19:46;;;;;;;17.75;2.70;;;7.40;99.90;;;;;;5031838;28;20256;-74
2022/01/17 00:22:14;;;;;;;15.35;2.55;;;7.30;99.90;;;;;;5031326;28;20045;-75
2022/01/17 00:24:41;;;;;;;14.93;1.90;;;7.30;99.90;;;;;;5031664;28;20071;-74
2022/01/17 00:27:06;;;;;;;14.82;2.40;;;7.20;99.90;;;;;;5031810;28;20026;-74
2022/01/17 00:29:33;;;;;;;19.30;2.17;;;7.20;99.90;;;;;;5031293;28;20036;-74
2022/01/17 00:31:58;;;;;;;18.20;2.50;;;7.20;99.90;;;;;;5031384;28;20065;-74
2022/01/17 00:34:25;;;;;;;20.42;2.08;;;7.10;99.90;;;;;;5031163;28;20512;-74
2022/01/17 00:36:51;;;;;;;20.80;2.03;;;7.10;99.90;;;;;;5030830;28;20028;-74
2022/01/17 00:39:17;;;;;;;14.45;2.05;;;7.10;99.90;;;;;;5031169;28;20044;-75
2022/01/17 00:41:43;;;;;;;16.70;2.10;;;7.00;99.90;;;;;;5031063;28;20030;-74
2022/01/17 00:44:09;;;;;;;16.00;2.40;;;7.00;99.90;;;;;;5031373;28;20056;-74
2022/01/17 00:46:35;;;;;;;13.43;2.15;;;7.00;99.90;;;;;;5030858;28;20021;-74
2022/01/17 00:49:02;;;;;;;17.83;3.13;;;6.90;99.90;;;;;;5031077;28;20044;-74
2022/01/17 00:51:28;;;;;;;12.10;2.10;;;6.90;99.90;;;;;;5031131;28;20109;-74
2022/01/17 00:53:53;;;;;;;10.93;1.90;;;6.80;99.90;;;;;;5031336;28;20443;-74
2022/01/17 00:56:20;;;;;;;12.20;1.90;;;6.80;99.90;;;;;;5030913;28;20509;-74
2022/01/17 00:58:46;;;;;;;11.90;1.90;;;6.80;99.90;;;;;;5030829;28;20041;-74
2022/01/17 01:01:12;;;;;;;16.48;2.00;;;6.70;99.90;;;;;;5030827;28;20034;-74
2022/01/17 01:03:37;;;;;;;15.27;2.20;;;6.70;99.90;;;;;;5030994;28;20017;-74
2022/01/17 01:06:04;;;;;;;15.98;1.85;;;6.70;99.90;;;;;;5031415;28;20064;-74
2022/01/17 01:08:30;;;;;;;10.02;2.15;;;6.60;99.90;;;;;;5031340;28;20495;-74
2022/01/17 01:10:55;;;;;;;10.45;1.83;;;6.60;99.90;;;;;;5031044;28;20078;-74
2022/01/17 01:13:23;;;;;;;15.27;2.63;;;6.60;99.90;;;;;;5030953;28;20096;-74
2022/01/17 01:29:16;;;;;;;16.33;2.15;;;6.40;99.90;;;;;;4965629;28;20077;-74
2022/01/17 01:31:52;;;;;;;15.70;2.10;;;6.40;99.90;;;;;;4965508;28;20062;-74
2022/01/17 01:34:26;;;;;;;21.58;2.25;;;6.40;99.90;;;;;;4953772;29;20027;-74
2022/01/17 01:36:52;;;;;;;10.05;2.10;;;6.40;99.90;;;;;;4953764;29;20115;-74
2022/01/17 01:39:22;;;;;;;13.05;2.13;;;6.40;99.90;;;;;;4953534;29;20027;-74
2022/01/17 01:41:49;;;;;;;19.25;1.92;;;6.30;99.90;;;;;;4953772;29;20038;-74
2022/01/17 01:44:18;;;;;;;16.92;2.03;;;6.40;99.90;;;;;;4953978;29;20075;-74
2022/01/17 01:46:46;;;;;;;13.52;1.90;;;6.30;99.90;;;;;;4962786;28;20464;-74
2022/01/17 01:49:13;;;;;;;11.18;1.95;;;6.30;99.90;;;;;;4960434;28;20053;-74
2022/01/17 01:51:39;;;;;;;18.85;2.30;;;6.30;99.90;;;;;;4963957;28;20523;-74
2022/01/17 01:54:04;;;;;;;16.45;2.10;;;6.30;99.90;;;;;;4964019;28;20037;-74
2022/01/17 01:56:30;;;;;;;13.05;1.98;;;6.30;99.90;;;;;;4964977;28;20116;-74
2022/01/17 01:58:56;;;;;;;18.35;2.20;;;6.20;99.90;;;;;;5030215;28;20025;-74
2022/01/17 02:01:22;;;;;;;17.58;2.20;;;6.20;99.90;;;;;;5016865;28;20041;-74
2022/01/17 02:03:48;;;;;;;17.52;1.85;;;6.20;99.90;;;;;;5014200;28;20030;-74
2022/01/17 02:06:14;;;;;;;20.40;2.38;;;6.20;99.90;;;;;;5014929;28;20030;-74
2022/01/17 02:08:39;;;;;;;12.10;1.80;;;6.20;99.90;;;;;;5030227;28;20148;-74
2022/01/17 02:11:07;;;;;;;11.70;2.47;;;6.20;99.90;;;;;;5019437;28;20057;-74
2022/01/17 02:13:32;;;;;;;15.65;2.25;;;6.20;99.90;;;;;;5032263;28;20724;-74
2022/01/17 02:16:02;;;;;;;18.10;2.00;;;6.20;99.90;;;;;;5014348;28;20029;-74
2022/01/17 02:18:30;;;;;;;17.48;2.10;;;6.20;99.90;;;;;;5031296;28;20037;-74
2022/01/17 02:21:11;;;;;;;22.77;2.47;;;6.10;99.90;;;;;;5021416;28;20036;-74
2022/01/17 02:23:37;;;;;;;16.38;2.42;;;6.10;99.90;;;;;;5021620;28;20096;-74
2022/01/17 02:26:03;;;;;;;20.30;2.83;;;6.20;99.90;;;;;;5027377;28;20044;-75
2022/01/17 02:28:29;;;;;;;20.92;2.40;;;6.20;99.90;;;;;;5028020;28;20072;-74
2022/01/17 02:30:54;;;;;;;16.95;2.42;;;6.20;99.90;;;;;;5022861;28;20030;-74
2022/01/17 02:33:20;;;;;;;19.05;2.88;;;6.20;99.90;;;;;;5029401;28;20068;-74
2022/01/17 02:35:47;;;;;;;19.65;2.90;;;6.20;99.90;;;;;;5020044;28;20564;-74
2022/01/17 02:38:12;;;;;;;18.17;2.85;;;6.20;99.90;;;;;;5027889;28;20034;-74
2022/01/17 02:40:38;;;;;;;25.88;6.80;;;6.20;99.90;;;;;;5017137;28;20034;-74
2022/01/17 02:43:06;;;;;;;22.90;3.55;;;6.20;99.90;;;;;;5031628;28;20041;-74
2022/01/17 02:45:34;;;;;;;22.23;3.30;;;6.20;99.90;;;;;;5026681;28;20033;-74
2022/01/17 02:48:04;;;;;;;23.63;3.85;;;6.20;99.90;;;;;;5025622;28;20080;-74
2022/01/17 02:50:29;;;;;;;19.77;3.25;;;6.20;99.90;;;;;;5021149;28;20036;-74
2022/01/17 02:53:00;;;;;;;20.13;3.28;;;6.20;99.90;;;;;;5031147;28;20185;-75
2022/01/17 02:55:26;;;;;;;19.23;3.30;;;6.20;99.90;;;;;;5014556;28;20037;-74
2022/01/17 02:57:51;;;;;;;19.63;3.63;;;6.20;99.90;;;;;;5022229;28;20036;-74
2022/01/17 03:00:17;;;;;;;19.25;3.45;;;6.20;99.90;;;;;;5032334;28;20074;-74
2022/01/17 03:02:48;;;;;;;22.60;4.00;;;6.20;99.90;;;;;;5018396;28;20042;-74
2022/01/17 03:05:14;;;;;;;22.80;4.18;;;6.20;99.90;;;;;;5013167;28;20025;-74
2022/01/17 03:07:40;;;;;;;19.27;3.83;;;6.20;99.90;;;;;;5028608;28;20037;-74
2022/01/17 03:10:12;;;;;;;19.40;4.30;;;6.20;99.90;;;;;;5018065;28;20022;-74
2022/01/17 03:12:37;;;;;;;28.33;5.07;;;6.20;99.90;;;;;;5025164;28;20045;-74
2022/01/17 03:15:03;;;;;;;24.98;6.30;;;6.20;99.90;;;;;;5019280;28;20037;-74
2022/01/17 03:17:29;;;;;;;26.67;5.57;;;6.20;99.90;;;;;;5012916;28;20033;-74
2022/01/17 03:19:55;;;;;;;24.40;5.32;;;6.30;99.90;;;;;;5012952;28;20029;-74
2022/01/17 03:22:20;;;;;;;21.17;5.57;;;6.30;99.90;;;;;;5019070;28;20073;-74
2022/01/17 03:24:46;;;;;;;23.13;5.78;;;6.30;99.90;;;;;;5021248;28;20471;-74
2022/01/17 03:27:12;;;;;;;26.02;5.97;;;6.30;99.90;;;;;;5018327;28;20535;-74
2022/01/17 03:29:37;;;;;;;28.40;5.85;;;6.30;99.90;;;;;;5012961;28;20514;-74
2022/01/17 03:32:03;;;;;;;29.13;6.50;;;6.30;99.90;;;;;;5027590;28;20549;-74
2022/01/17 03:34:29;;;;;;;33.45;6.78;;;6.30;99.90;;;;;;5026157;28;20491;-74
2022/01/17 03:36:54;;;;;;;38.10;7.20;;;6.30;99.90;;;;;;5015192;28;20464;-74
2022/01/17 03:39:20;;;;;;;29.92;7.20;;;6.30;99.90;;;;;;5000317;28;20087;-74
2022/01/17 03:41:45;;;;;;;23.50;7.43;;;6.30;99.90;;;;;;5017542;28;20483;-74
2022/01/17 03:44:11;;;;;;;31.70;7.80;;;6.30;99.90;;;;;;5020966;28;20423;-74
2022/01/17 03:46:36;;;;;;;35.22;8.05;;;6.30;99.90;;;;;;5012852;28;20036;-74
2022/01/17 03:49:03;;;;;;;24.90;7.80;;;6.30;99.90;;;;;;5023938;28;20108;-74
2022/01/17 03:51:28;;;;;;;40.75;8.45;;;6.30;99.90;;;;;;5031023;28;20025;-74
2022/01/17 03:53:54;;;;;;;32.60;8.57;;;6.30;99.90;;;;;;5017816;28;20025;-74
2022/01/17 03:56:19;;;;;;;28.58;8.95;;;6.30;99.90;;;;;;5013488;28;20489;-74
2022/01/17 03:58:46;;;;;;;24.55;9.00;;;6.40;99.90;;;;;;5013296;28;20391;-74
2022/01/17 04:01:12;;;;;;;28.95;9.77;;;6.30;99.90;;;;;;5013127;28;20044;-74
2022/01/17 04:03:38;;;;;;;33.75;9.80;;;6.30;99.90;;;;;;5022385;28;20044;-74
2022/01/17 04:06:04;;;;;;;27.98;10.43;;;6.40;99.90;;;;;;5012296;28;20079;-74
2022/01/17 04:08:30;;;;;;;39.63;10.55;;;6.40;99.90;;;;;;5015831;28;20038;-74
2022/01/17 04:10:56;;;;;;;34.55;10.90;;;6.40;99.90;;;;;;5023686;28;20030;-74
2022/01/17 04:13:22;;;;;;;29.85;11.18;;;6.40;99.90;;;;;;5029639;28;20076;-74
2022/01/17 04:15:48;;;;;;;34.53;11.32;;;6.40;99.90;;;;;;5029373;28;20069;-74
2022/01/17 04:18:15;;;;;;;35.15;11.80;;;6.40;99.90;;;;;;5017716;28;20111;-74
2022/01/17 04:20:41;;;;;;;34.63;11.25;;;6.40;99.90;;;;;;5023772;28;20049;-74
2022/01/17 04:23:11;;;;;;;40.95;11.88;;;6.40;99.90;;;;;;5012773;28;20041;-74
2022/01/17 04:25:39;;;;;;;71.63;28.90;;;6.40;99.90;;;;;;5012244;28;20033;-74
2022/01/17 04:28:06;;;;;;;34.47;12.25;;;6.40;99.90;;;;;;5016304;28;20087;-74
2022/01/17 04:30:32;;;;;;;32.38;12.23;;;6.30;99.90;;;;;;5025566;28;20025;-74
2022/01/17 04:32:58;;;;;;;37.08;11.77;;;6.30;99.90;;;;;;5031661;28;20130;-74
2022/01/17 04:35:26;;;;;;;38.42;12.10;;;6.30;99.90;;;;;;5031384;28;20431;-74
2022/01/17 04:37:55;;;;;;;36.00;12.07;;;6.30;99.90;;;;;;5031227;28;20038;-74
2022/01/17 04:40:21;;;;;;;33.30;11.38;;;6.30;99.90;;;;;;5031533;28;20385;-74
2022/01/17 04:42:49;;;;;;;44.55;11.40;;;6.30;99.90;;;;;;5031169;28;20025;-74
2022/01/17 04:45:17;;;;;;;32.22;12.52;;;6.30;99.90;;;;;;5012365;28;20107;-74
2022/01/17 04:47:46;;;;;;;37.70;12.23;;;6.30;99.90;;;;;;5012476;28;20026;-74
2022/01/17 04:50:15;;;;;;;34.80;10.73;;;6.30;99.90;;;;;;5031338;28;20022;-74
2022/01/17 04:52:42;;;;;;;35.47;10.27;;;6.30;99.90;;;;;;5028154;28;20471;-74
2022/01/17 04:55:09;;;;;;;36.90;10.40;;;6.30;99.90;;;;;;5018438;28;20360;-74
2022/01/17 04:57:39;;;;;;;31.17;10.20;;;6.30;99.90;;;;;;5030261;28;20051;-74
2022/01/17 05:00:08;;;;;;;37.83;10.02;;;6.30;99.90;;;;;;5030718;28;20034;-74
2022/01/17 05:02:33;;;;;;;30.95;9.95;;;6.30;99.90;;;;;;5020634;28;20044;-74
2022/01/17 05:05:02;;;;;;;34.67;10.38;;;6.30;99.90;;;;;;5022338;28;20387;-74
2022/01/17 05:07:28;;;;;;;30.48;9.45;;;6.30;99.90;;;;;;5034323;28;20025;-74
2022/01/17 05:09:53;;;;;;;27.13;9.13;;;6.30;99.90;;;;;;5034508;28;20022;-74
2022/01/17 05:12:19;;;;;;;40.08;9.48;;;6.30;99.90;;;;;;5033365;28;20065;-74
2022/01/17 05:14:48;;;;;;;35.85;9.43;;;6.30;99.90;;;;;;5031203;28;20470;-74
2022/01/17 05:17:57;;;;;;;37.05;10.90;;;6.30;99.90;;;;;;5015163;28;20052;-74
2022/01/17 05:20:07;;;;;;;37.25;10.45;;;6.30;99.90;;;;;;5018160;28;20095;-74
2022/01/17 05:22:33;;;;;;;34.50;10.70;;;6.30;99.90;;;;;;5021483;28;20115;-73
2022/01/17 05:25:00;;;;;;;33.90;10.90;;;6.30;99.90;;;;;;5020520;28;20033;-73
2022/01/17 05:27:26;;;;;;;37.20;10.70;;;6.30;99.90;;;;;;5022175;28;20428;-72
2022/01/17 05:29:52;;;;;;;36.35;11.60;;;6.30;99.90;;;;;;5021244;28;20186;-72
2022/01/17 05:32:18;;;;;;;40.08;12.63;;;6.30;99.90;;;;;;5029398;28;20057;-72
2022/01/17 05:34:43;;;;;;;39.47;13.52;;;6.30;99.90;;;;;;5025128;28;20029;-72
2022/01/17 05:37:13;;;;;;;38.00;14.18;;;6.30;99.90;;;;;;5025380;28;20422;-72
2022/01/17 05:39:38;;;;;;;44.42;16.13;;;6.40;99.90;;;;;;5038149;28;20048;-72
2022/01/17 05:42:05;;;;;;;44.60;18.05;;;6.40;99.90;;;;;;5025263;28;20453;-73
2022/01/17 05:44:31;;;;;;;57.47;20.23;;;6.40;99.90;;;;;;5043779;28;20033;-72
2022/01/17 05:46:57;;;;;;;47.85;20.58;;;6.40;99.90;;;;;;5041994;28;20032;-72
2022/01/17 05:49:23;;;;;;;52.47;19.92;;;6.50;99.90;;;;;;5050368;28;20048;-72
2022/01/17 05:51:48;;;;;;;53.80;21.85;;;6.50;99.90;;;;;;5046289;28;20021;-72
2022/01/17 05:54:15;;;;;;;61.55;21.50;;;6.50;99.90;;;;;;5043780;28;20053;-72
2022/01/17 05:56:42;;;;;;;58.80;22.95;;;6.50;99.90;;;;;;5048892;28;20031;-72
2022/01/17 05:59:08;;;;;;;57.28;22.70;;;6.60;99.90;;;;;;5054520;28;20032;-72
2022/01/17 06:01:33;;;;;;;52.38;22.55;;;6.60;99.90;;;;;;5063669;28;20029;-72
2022/01/17 06:03:59;;;;;;;58.30;22.80;;;6.60;99.90;;;;;;5049787;28;20049;-73
2022/01/17 06:06:24;;;;;;;54.95;22.00;;;6.60;99.90;;;;;;5045023;28;20022;-73
2022/01/17 06:08:50;;;;;;;59.65;22.70;;;6.60;99.90;;;;;;5050168;28;20029;-73
2022/01/17 06:11:16;;;;;;;53.28;20.70;;;6.50;99.90;;;;;;5047920;28;20488;-72
2022/01/17 06:13:43;;;;;;;60.83;20.23;;;6.50;99.90;;;;;;5015817;28;20014;-72
2022/01/17 06:16:09;;;;;;;54.00;20.17;;;6.50;99.90;;;;;;5047969;28;20025;-73
2022/01/17 06:18:35;;;;;;;50.72;19.55;;;6.50;99.90;;;;;;5044653;28;20029;-72
2022/01/17 06:21:00;;;;;;;52.28;18.73;;;6.50;99.90;;;;;;5044110;28;20057;-72
2022/01/17 06:23:26;;;;;;;45.00;18.23;;;6.50;99.90;;;;;;5046738;28;20049;-73
2022/01/17 06:25:52;;;;;;;52.50;17.10;;;6.50;99.90;;;;;;5041550;28;20104;-72
2022/01/17 06:28:17;;;;;;;47.22;16.70;;;6.50;99.90;;;;;;5045946;28;20022;-76
2022/01/17 06:30:43;;;;;;;50.25;17.02;;;6.50;99.90;;;;;;5045755;28;20077;-74
2022/01/17 06:33:09;;;;;;;46.92;15.52;;;6.50;99.90;;;;;;5045155;28;20028;-74
2022/01/17 06:35:35;;;;;;;41.00;14.27;;;6.50;99.90;;;;;;5044581;28;20440;-74
2022/01/17 06:38:02;;;;;;;41.17;14.93;;;6.40;99.90;;;;;;5044608;28;20040;-74
2022/01/17 06:40:28;;;;;;;42.75;13.82;;;6.40;99.90;;;;;;5042620;28;20022;-74
2022/01/17 06:42:54;;;;;;;38.38;13.02;;;6.40;99.90;;;;;;5015532;28;20033;-74
2022/01/17 06:45:20;;;;;;;34.28;12.63;;;6.40;99.90;;;;;;5023564;28;20472;-74
2022/01/17 06:47:46;;;;;;;40.50;11.55;;;6.40;99.90;;;;;;5023392;28;20034;-74
2022/01/17 06:50:12;;;;;;;33.42;10.65;;;6.40;99.90;;;;;;5024522;28;20029;-74
2022/01/17 06:52:38;;;;;;;40.45;11.27;;;6.40;99.90;;;;;;5033808;28;20081;-74
2022/01/17 06:55:05;;;;;;;32.70;9.07;;;6.40;99.90;;;;;;5044577;28;20458;-73
2022/01/17 06:57:31;;;;;;;33.63;9.70;;;6.40;99.90;;;;;;5039901;28;20029;-74
2022/01/17 06:59:57;;;;;;;28.60;8.80;;;6.40;99.90;;;;;;5053261;28;20051;-73
2022/01/17 07:02:23;;;;;;;30.75;7.93;;;6.40;99.90;;;;;;5048693;28;20053;-73
2022/01/17 07:04:48;;;;;;;30.80;7.07;;;6.30;99.90;;;;;;5045158;28;20387;-74
2022/01/17 07:07:14;;;;;;;25.33;6.97;;;6.30;99.90;;;;;;5040160;28;20036;-74
2022/01/17 07:09:40;;;;;;;23.60;6.57;;;6.30;99.90;;;;;;5043353;28;20034;-74
2022/01/17 07:12:06;;;;;;;33.22;6.28;;;6.30;99.90;;;;;;5055691;28;20061;-73
2022/01/17 07:14:32;;;;;;;30.83;6.43;;;6.40;99.90;;;;;;5047831;28;20048;-74
2022/01/17 07:16:57;;;;;;;22.63;5.82;;;6.30;99.90;;;;;;5043705;28;20026;-74
2022/01/17 07:19:24;;;;;;;21.65;5.28;;;6.30;99.90;;;;;;5041370;28;20132;-74
2022/01/17 07:21:50;;;;;;;27.33;5.68;;;6.30;99.90;;;;;;5049357;28;20034;-73
2022/01/17 07:24:16;;;;;;;26.75;6.00;;;6.30;99.90;;;;;;5049582;28;20026;-72
2022/01/17 07:26:42;;;;;;;32.60;6.03;;;6.30;99.90;;;;;;5052864;28;20021;-72
2022/01/17 07:29:10;;;;;;;31.08;6.13;;;6.30;99.90;;;;;;5057195;28;20088;-74
2022/01/17 07:31:37;;;;;;;25.00;5.75;;;6.30;99.90;;;;;;5054715;28;20490;-74
2022/01/17 07:34:03;;;;;;;28.17;6.38;;;6.30;99.90;;;;;;5037094;28;20025;-74
2022/01/17 07:36:29;;;;;;;28.50;6.47;;;6.30;99.90;;;;;;5023797;28;20090;-73
2022/01/17 07:38:56;;;;;;;31.88;5.80;;;6.30;99.90;;;;;;5024826;28;20049;-74
2022/01/17 07:41:21;;;;;;;24.70;5.55;;;6.30;99.90;;;;;;5043782;28;20085;-74
2022/01/17 07:43:48;;;;;;;33.30;6.38;;;6.40;99.90;;;;;;5047273;28;20546;-74
2022/01/17 07:46:25;;;;;;;31.17;6.72;;;6.40;99.90;;;;;;5040666;28;20018;-74
2022/01/17 07:51:27;;;;;;;28.30;5.28;;;6.40;99.90;;;;;;5022858;28;20069;-73
2022/01/17 07:53:54;;;;;;;29.17;5.38;;;6.50;99.90;;;;;;5022246;28;20383;-73
2022/01/17 07:56:21;;;;;;;33.60;5.93;;;6.50;99.90;;;;;;5040163;28;20081;-74
2022/01/17 07:58:46;;;;;;;32.20;5.53;;;6.50;99.90;;;;;;5043289;28;20810;-74
2022/01/17 08:01:12;;;;;;;32.83;6.45;;;6.60;99.90;;;;;;5043074;28;20103;-73
2022/01/17 08:03:38;;;;;;;32.28;5.63;;;6.60;99.90;;;;;;5040722;28;20430;-74
2022/01/17 08:06:04;;;;;;;35.47;5.35;;;6.60;99.90;;;;;;5042775;28;20077;-74
2022/01/17 08:08:30;;;;;;;27.35;5.00;;;6.60;99.90;;;;;;5041218;28;20051;-74
2022/01/17 08:10:55;;;;;;;28.05;5.28;;;6.70;99.90;;;;;;5047452;28;20048;-74
2022/01/17 08:13:21;;;;;;;37.20;5.85;;;6.70;99.90;;;;;;5043318;28;20046;-74
2022/01/17 08:15:47;;;;;;;30.38;5.10;;;6.70;99.90;;;;;;5045617;28;20028;-73
2022/01/17 08:18:13;;;;;;;32.10;5.13;;;6.80;99.90;;;;;;5053656;28;20023;-73
2022/01/17 08:20:39;;;;;;;31.33;5.43;;;6.80;99.90;;;;;;5051472;28;20036;-73
2022/01/17 08:23:05;;;;;;;36.50;5.25;;;6.90;99.90;;;;;;5049052;28;20094;-73
2022/01/17 08:25:31;;;;;;;29.50;4.93;;;6.90;99.90;;;;;;5032423;28;20031;-73
2022/01/17 08:27:57;;;;;;;38.35;5.22;;;6.90;99.90;;;;;;5046365;28;20040;-73
2022/01/17 08:30:23;;;;;;;34.25;5.45;;;6.90;99.90;;;;;;5049235;28;20036;-74
2022/01/17 08:32:52;;;;;;;28.42;4.85;;;7.00;99.90;;;;;;5051007;28;20101;-73
2022/01/17 08:35:19;;;;;;;34.45;5.22;;;7.00;99.90;;;;;;5052741;28;20017;-74
2022/01/17 08:37:45;;;;;;;26.20;5.20;;;7.10;99.90;;;;;;5048111;28;20078;-73
2022/01/17 08:40:12;;;;;;;27.85;5.43;;;7.10;99.90;;;;;;5051343;28;20060;-73
2022/01/17 08:42:38;;;;;;;28.40;5.28;;;7.10;99.90;;;;;;5042683;28;20040;-73
2022/01/17 08:45:09;;;;;;;33.90;4.82;;;7.10;99.90;;;;;;5046253;28;20017;-73
2022/01/17 08:47:35;;;;;;;38.38;4.93;;;7.20;99.90;;;;;;5051335;28;20025;-73
2022/01/17 08:50:02;;;;;;;25.88;4.88;;;7.20;99.90;;;;;;5047943;28;20027;-73
2022/01/17 08:52:28;;;;;;;36.17;5.18;;;7.20;99.90;;;;;;5050660;28;20029;-73
2022/01/17 08:54:54;;;;;;;36.13;4.55;;;7.20;99.90;;;;;;5056400;28;20048;-73
2022/01/17 08:57:19;;;;;;;27.55;5.05;;;7.30;99.90;;;;;;5052002;28;20013;-73
2022/01/17 08:59:45;;;;;;;32.25;5.22;;;7.40;99.90;;;;;;5057309;28;20025;-73
2022/01/17 09:02:12;;;;;;;35.45;4.72;;;7.40;99.90;;;;;;5042859;28;20037;-73
2022/01/17 09:04:41;;;;;;;36.67;4.95;;;7.40;99.90;;;;;;5052308;28;20029;-73
2022/01/17 09:07:12;;;;;;;32.38;4.82;;;7.40;99.90;;;;;;5050122;28;20063;-73
2022/01/17 09:09:39;;;;;;;38.83;4.93;;;7.50;99.90;;;;;;5044365;28;20136;-73
2022/01/17 09:12:06;;;;;;;31.58;4.75;;;7.50;99.90;;;;;;5053819;28;20024;-73
2022/01/17 09:14:32;;;;;;;29.05;4.72;;;7.50;99.90;;;;;;5049766;28;20514;-73
2022/01/17 09:16:58;;;;;;;33.30;4.50;;;7.60;99.90;;;;;;5051334;28;20029;-73
2022/01/17 09:19:23;;;;;;;26.73;4.78;;;7.60;99.90;;;;;;5050921;28;20021;-73
2022/01/17 09:21:49;;;;;;;36.08;4.60;;;7.60;99.90;;;;;;5055699;28;20399;-73
2022/01/17 09:24:15;;;;;;;31.58;4.53;;;7.60;99.90;;;;;;5060571;28;20021;-73
2022/01/17 09:26:40;;;;;;;25.85;4.15;;;7.70;99.90;;;;;;5038578;28;20024;-73
2022/01/17 09:29:06;;;;;;;33.58;4.50;;;7.70;99.90;;;;;;5062984;28;20037;-73
2022/01/17 09:31:31;;;;;;;28.45;4.68;;;7.70;99.90;;;;;;5059360;28;20044;-73
2022/01/17 09:33:57;;;;;;;27.23;4.43;;;7.70;99.90;;;;;;5024047;28;20030;-73
2022/01/17 09:36:25;;;;;;;27.23;4.82;;;7.80;99.90;;;;;;5046365;28;20372;-73
2022/01/17 09:38:52;;;;;;;23.95;4.20;;;7.80;99.90;;;;;;5040570;28;20028;-73
2022/01/17 09:41:18;;;;;;;27.35;4.65;;;7.80;99.90;;;;;;5035491;28;21124;-73
2022/01/17 09:43:43;;;;;;;29.52;4.70;;;7.80;99.90;;;;;;5048534;28;20021;-73
2022/01/17 09:46:10;;;;;;;30.40;4.40;;;7.90;99.90;;;;;;5052873;28;20028;-74
2022/01/17 09:48:38;;;;;;;27.67;4.00;;;7.90;99.90;;;;;;5048600;28;20032;-74
2022/01/17 09:51:18;;;;;;;44.70;5.00;;;7.90;99.90;;;;;;5055728;28;20326;-73
2022/01/17 09:53:44;;;;;;;31.60;4.43;;;7.90;99.90;;;;;;5037363;28;20386;-73
2022/01/17 09:56:12;;;;;;;32.90;4.05;;;7.90;99.90;;;;;;5059123;28;20031;-73
2022/01/17 09:58:39;;;;;;;23.70;4.15;;;7.90;99.90;;;;;;5053088;28;20075;-74
2022/01/17 10:01:05;;;;;;;37.28;4.45;;;8.00;99.90;;;;;;5059331;28;20021;-73
2022/01/17 10:03:32;;;;;;;34.80;5.05;;;8.00;99.90;;;;;;5052488;28;20014;-73
2022/01/17 10:05:58;;;;;;;36.40;4.70;;;8.10;99.90;;;;;;5040107;28;20059;-74
2022/01/17 10:08:24;;;;;;;26.80;4.20;;;8.20;99.90;;;;;;5059336;28;20029;-76
2022/01/17 10:10:54;;;;;;;31.55;4.60;;;8.20;99.90;;;;;;5056872;28;20110;-73
2022/01/17 10:13:23;;;;;;;30.40;4.25;;;8.30;99.90;;;;;;5052005;28;20435;-73
2022/01/17 10:16:12;;;;;;;24.45;3.90;;;8.30;99.90;;;;;;5031292;28;20022;-74
2022/01/17 10:18:40;;;;;;;28.30;4.95;;;8.40;99.90;;;;;;5029161;28;20037;-73
2022/01/17 10:21:13;;;;;;;33.33;4.80;;;8.40;99.90;;;;;;5057232;28;20033;-74
2022/01/17 10:26:21;;;;;;;35.35;4.55;;;8.40;99.90;;;;;;5057016;28;20118;-73
2022/01/17 10:34:52;;;;;;;26.55;4.18;;;8.40;99.90;;;;;;5054671;28;20513;-74
2022/01/17 10:36:51;;;;;;;25.08;3.50;;;8.40;99.90;;;;;;5051994;28;20040;-73
2022/01/17 10:39:16;;;;;;;34.17;4.53;;;8.40;99.90;;;;;;5047267;28;20037;-74
2022/01/17 10:41:42;;;;;;;32.55;4.18;;;8.50;99.90;;;;;;5026159;28;20009;-73
2022/01/17 10:44:08;;;;;;;31.85;4.32;;;8.50;99.90;;;;;;5060194;28;20355;-74
2022/01/17 10:46:35;;;;;;;45.65;4.85;;;8.50;99.90;;;;;;5055454;28;20143;-73
2022/01/17 10:49:03;;;;;;;24.83;3.97;;;8.60;99.90;;;;;;5053069;28;20021;-73
2022/01/17 10:51:34;;;;;;;31.17;4.22;;;8.60;99.90;;;;;;5051028;28;20447;-73
2022/01/17 10:54:17;;;;;;;24.73;4.07;;;8.60;99.90;;;;;;5054069;28;20032;-73
2022/01/17 10:56:51;;;;;;;28.17;3.97;;;8.60;99.90;;;;;;5050206;28;20029;-73
2022/01/17 10:59:31;;;;;;;31.70;4.32;;;8.60;99.90;;;;;;5035133;28;20040;-73
2022/01/17 11:01:58;;;;;;;24.88;4.05;;;8.70;99.90;;;;;;5053186;28;20049;-74
2022/01/17 11:04:34;;;;;;;27.80;3.95;;;8.70;99.90;;;;;;5048290;28;20029;-74
2022/01/17 11:07:08;;;;;;;23.10;3.78;;;8.70;99.90;;;;;;5059098;28;20053;-73
2022/01/17 11:09:41;;;;;;;26.05;4.35;;;8.70;99.90;;;;;;5024608;28;20029;-74
2022/01/17 11:12:12;;;;;;;24.67;4.40;;;8.80;99.90;;;;;;5044200;28;20033;-73
2022/01/17 11:14:39;;;;;;;33.05;4.50;;;8.80;99.90;;;;;;5045398;28;20045;-73
2022/01/17 11:17:26;;;;;;;30.23;4.50;;;8.80;99.90;;;;;;5033284;28;20048;-73
2022/01/17 11:20:07;;;;;;;31.50;4.40;;;8.80;99.90;;;;;;5045336;28;20101;-73
2022/01/17 11:22:41;;;;;;;24.50;4.38;;;8.80;99.90;;;;;;5058123;28;20059;-73
2022/01/17 11:25:13;;;;;;;24.02;3.80;;;8.80;99.90;;;;;;5062170;28;20047;-73
2022/01/17 11:27:39;;;;;;;32.15;4.10;;;8.90;99.90;;;;;;5055959;28;20025;-73
2022/01/17 11:30:06;;;;;;;34.35;4.78;;;8.90;99.90;;;;;;5051996;28;20017;-74
2022/01/17 11:32:32;;;;;;;34.45;4.55;;;8.90;99.90;;;;;;5051728;28;20064;-73
2022/01/17 11:35:01;;;;;;;33.60;4.40;;;8.90;99.90;;;;;;5050708;28;20025;-73
2022/01/17 11:37:33;;;;;;;34.58;4.30;;;8.90;99.90;;;;;;5036189;28;20033;-73
2022/01/17 11:39:59;;;;;;;29.90;3.60;;;9.00;99.90;;;;;;5036504;28;20044;-73
2022/01/17 11:42:54;;;;;;;28.88;3.92;;;9.00;99.90;;;;;;5051649;28;20131;-73
2022/01/17 11:45:22;;;;;;;31.00;4.50;;;9.00;99.90;;;;;;5033360;28;20532;-73
2022/01/17 11:48:15;;;;;;;24.35;3.65;;;9.00;99.90;;;;;;5056667;28;20032;-73
2022/01/17 11:50:44;;;;;;;30.98;3.70;;;9.00;99.90;;;;;;5059271;28;20033;-73
2022/01/17 11:53:12;;;;;;;24.15;3.72;;;9.10;99.90;;;;;;5042576;28;20475;-74
2022/01/17 11:55:43;;;;;;;24.83;4.07;;;9.10;99.90;;;;;;5028987;28;20030;-73
2022/01/17 11:58:26;;;;;;;37.03;4.28;;;9.10;99.90;;;;;;5032784;28;20057;-73
2022/01/17 12:00:58;;;;;;;30.10;4.18;;;9.10;99.90;;;;;;5037130;28;20097;-73
2022/01/17 12:03:45;;;;;;;27.00;3.45;;;9.20;99.90;;;;;;5048302;28;20040;-73
2022/01/17 12:06:33;;;;;;;30.38;3.88;;;9.20;99.90;;;;;;5050859;28;20032;-73
2022/01/17 12:09:19;;;;;;;24.13;3.60;;;9.20;99.90;;;;;;5055026;28;20017;-73
2022/01/17 12:11:46;;;;;;;30.05;3.90;;;9.20;99.90;;;;;;5052214;28;20108;-73
2022/01/17 12:14:29;;;;;;;28.05;3.78;;;9.20;99.90;;;;;;5048852;28;20111;-74
2022/01/17 12:17:23;;;;;;;31.40;4.47;;;9.20;99.90;;;;;;5042633;28;20026;-73
2022/01/17 12:20:09;;;;;;;25.10;3.65;;;9.30;99.90;;;;;;5060669;28;20032;-74
2022/01/17 12:22:43;;;;;;;29.45;4.60;;;9.30;99.90;;;;;;5045329;28;20053;-74
2022/01/17 12:25:21;;;;;;;33.80;3.40;;;9.30;99.90;;;;;;5048233;28;20101;-74
2022/01/17 12:27:47;;;;;;;39.75;4.53;;;9.30;99.90;;;;;;5055178;28;20067;-73
2022/01/17 12:30:15;;;;;;;30.90;4.13;;;9.30;99.90;;;;;;5053455;28;20025;-73
2022/01/17 12:32:45;;;;;;;29.80;4.00;;;9.30;99.90;;;;;;5048149;28;20028;-73
2022/01/17 12:35:16;;;;;;;22.33;3.95;;;9.40;99.90;;;;;;5052473;28;20019;-73
2022/01/17 12:38:06;;;;;;;25.05;3.35;;;9.40;99.90;;;;;;5049696;28;20022;-73
2022/01/17 12:40:38;;;;;;;24.33;3.22;;;9.30;99.90;;;;;;5042342;28;20045;-73
2022/01/17 12:43:15;;;;;;;22.73;3.35;;;9.40;99.90;;;;;;5058063;28;20077;-73
2022/01/17 12:45:47;;;;;;;18.90;3.63;;;9.40;99.90;;;;;;5047920;28;20028;-73
2022/01/17 12:48:18;;;;;;;24.40;3.40;;;9.40;99.90;;;;;;5043191;28;20474;-73
2022/01/17 12:50:47;;;;;;;27.88;3.72;;;9.40;99.90;;;;;;5049037;28;20026;-73
2022/01/17 12:53:16;;;;;;;24.90;3.45;;;9.40;99.90;;;;;;5038747;28;20049;-73
2022/01/17 12:55:45;;;;;;;28.35;3.97;;;9.40;99.90;;;;;;5043168;28;20113;-73
2022/01/17 12:58:20;;;;;;;25.63;3.33;;;9.50;99.90;;;;;;5053892;28;20028;-73
2022/01/17 13:00:47;;;;;;;25.98;3.75;;;9.50;99.90;;;;;;5037025;28;20033;-73
2022/01/17 13:03:15;;;;;;;27.20;4.07;;;9.60;99.90;;;;;;5048860;28;20029;-73
2022/01/17 13:05:41;;;;;;;24.13;3.38;;;9.70;99.90;;;;;;5039718;28;20045;-73
2022/01/17 13:08:07;;;;;;;24.40;3.50;;;9.70;99.90;;;;;;5041039;28;20047;-73
2022/01/17 13:10:34;;;;;;;28.35;4.25;;;9.70;99.90;;;;;;5024112;28;20063;-73
2022/01/17 13:13:00;;;;;;;19.60;3.40;;;9.70;99.90;;;;;;5051393;28;20580;-74
2022/01/17 13:15:27;;;;;;;25.52;3.65;;;9.80;99.90;;;;;;5042503;28;20050;-73
2022/01/17 13:17:56;;;;;;;21.42;3.45;;;9.80;99.90;;;;;;5024707;28;20065;-73